CheckWX is a tool to help pilots better visualize weather data.  It is not intended as a substitute for an official pre-flight weather briefing.

03:12:01 UTC

CYPC METAR
Paulatuk (Nora Aliqatchialuk Ruben) Airport
Paulatuk, Canada
Current

4 hours ago

CYPC 252300Z 34003KT 300V010 15SM BKN025 OVC040 03/00 A2999 RMK SC5SC3 LAST STFD OBS/NEXT 261300 UTC SLP157
Observed
May-25 @ 23:00 UTC
Wind
  • 340° at 3 KTS
Visibility
15 SM
Flight Rules
MVFR
Cloud Levels
  • Broken at 2,500' AGL
  • Overcast at 4,000' AGL
Temperature
C / 37°F
Dewpoint
C / 32°F
Humidity
81%
Altimeter
29.99" Hg
Pressure
1015.62 hPa
Previous

5 hours ago

CYPC 252200Z 33007KT 15SM FEW015 FEW035 SCT090 SCT210 03/00 A3000 RMK SC1SC1AC2CI1 SC TR SLP160
Observed
May-25 @ 22:00 UTC
Wind
  • 330° at 7 KTS
Visibility
15 SM
Flight Rules
VFR
Cloud Levels
  • Few at 1,500' AGL
  • Few at 3,500' AGL
  • Scattered at 9,000' AGL
  • Scattered at 21,000' AGL
Temperature
C / 37°F
Dewpoint
C / 32°F
Humidity
81%
Altimeter
30" Hg
Pressure
1015.92 hPa
Previous

6 hours ago

CYPC 252100Z 32007KT 15SM SCT021 BKN035 BKN090 03/01 A2999 RMK SC3SC3AC1 SLP159
Observed
May-25 @ 21:00 UTC
Wind
  • 320° at 7 KTS
Visibility
15 SM
Flight Rules
VFR
Cloud Levels
  • Scattered at 2,100' AGL
  • Broken at 3,500' AGL
  • Broken at 9,000' AGL
Temperature
C / 37°F
Dewpoint
C / 34°F
Humidity
87%
Altimeter
29.99" Hg
Pressure
1015.62 hPa